Time;durP1;ratioP1;P1;durP2;ratioP2;P2;SDS_P1;SDS_P2;PMS_P1;PMS_P2;Temp;Humidity;BMP_temperature;BMP_pressure;BME280_temperature;BME280_humidity;BME280_pressure;Samples;Min_cycle;Max_cycle;Signal;HPM_P1;HPM_P2
2022/01/12 00:01:02;;;;;;;7.93;7.13;;;1.10;99.90;;;;;;5005533;28;20201;-84
2022/01/12 00:03:29;;;;;;;10.05;7.00;;;1.10;99.90;;;;;;5017402;28;20225;-83
2022/01/12 00:05:56;;;;;;;7.57;6.30;;;1.10;99.90;;;;;;5031738;28;20190;-82
2022/01/12 00:08:25;;;;;;;8.45;7.07;;;1.20;99.90;;;;;;5013033;28;20455;-85
2022/01/12 00:10:52;;;;;;;8.82;6.55;;;1.20;99.90;;;;;;5018143;28;20312;-84
2022/01/12 00:13:18;;;;;;;9.75;7.80;;;1.20;99.90;;;;;;5014885;28;20630;-84
2022/01/12 00:15:45;;;;;;;7.70;6.80;;;1.10;99.90;;;;;;5021132;28;20212;-85
2022/01/12 00:18:12;;;;;;;8.07;7.25;;;1.10;99.90;;;;;;5006105;28;20645;-85
2022/01/12 00:20:38;;;;;;;11.18;7.05;;;1.10;99.90;;;;;;5017232;28;20197;-85
2022/01/12 00:23:05;;;;;;;8.82;7.47;;;1.10;99.90;;;;;;5010737;28;20216;-84
2022/01/12 00:25:45;;;;;;;6.72;6.13;;;1.00;99.90;;;;;;5002524;28;20229;-85
2022/01/12 00:33:41;;;;;;;9.38;7.43;;;1.00;99.90;;;;;;5005462;28;20231;-85
2022/01/12 00:36:07;;;;;;;7.47;6.63;;;1.00;99.90;;;;;;4999200;28;20200;-85
2022/01/12 00:38:34;;;;;;;9.30;6.95;;;0.90;99.90;;;;;;5003362;28;20198;-85
2022/01/12 00:41:02;;;;;;;10.82;8.25;;;1.00;99.90;;;;;;5031077;28;20258;-85
2022/01/12 00:43:30;;;;;;;8.07;7.20;;;1.00;99.90;;;;;;5005485;28;20676;-85
2022/01/12 00:45:57;;;;;;;7.22;6.53;;;0.90;99.90;;;;;;4999334;28;20287;-85
2022/01/12 00:48:24;;;;;;;10.95;7.35;;;1.00;99.90;;;;;;5006052;28;20293;-85
2022/01/12 00:50:51;;;;;;;9.38;7.65;;;1.00;99.90;;;;;;5002726;28;20296;-85
2022/01/12 00:53:17;;;;;;;10.10;6.47;;;1.00;99.90;;;;;;5000395;28;20294;-85
2022/01/12 00:55:44;;;;;;;10.48;7.60;;;1.00;99.90;;;;;;5006880;28;20204;-85
2022/01/12 00:58:12;;;;;;;7.93;7.13;;;0.90;99.90;;;;;;5002198;28;20595;-85
2022/01/12 01:00:40;;;;;;;8.73;7.07;;;0.80;99.90;;;;;;5001712;28;20214;-85
2022/01/12 01:03:08;;;;;;;11.07;7.43;;;0.80;99.90;;;;;;5018733;28;20224;-84
2022/01/12 01:05:35;;;;;;;9.30;6.78;;;0.70;99.90;;;;;;5022732;28;20211;-85
2022/01/12 01:08:02;;;;;;;8.32;7.22;;;0.70;99.90;;;;;;5006162;28;20224;-85
2022/01/12 01:10:42;;;;;;;9.45;8.02;;;0.60;99.90;;;;;;5008262;28;20219;-85
2022/01/12 01:13:09;;;;;;;10.40;8.95;;;0.60;99.90;;;;;;5009040;28;20315;-85
2022/01/12 01:15:59;;;;;;;12.02;9.30;;;0.60;99.90;;;;;;4994517;28;20700;-85
2022/01/12 01:26:53;;;;;;;10.32;7.55;;;0.40;99.90;;;;;;5015386;28;20203;-85
2022/01/12 01:29:21;;;;;;;10.15;7.68;;;0.40;99.90;;;;;;5003766;28;20228;-84
2022/01/12 01:31:49;;;;;;;9.32;8.23;;;0.30;99.90;;;;;;5014742;28;20203;-85
2022/01/12 01:34:17;;;;;;;10.55;7.75;;;0.40;99.90;;;;;;5002551;28;20670;-85
2022/01/12 01:36:46;;;;;;;11.57;8.00;;;0.30;99.90;;;;;;5000383;28;20204;-84
2022/01/12 01:39:14;;;;;;;8.77;6.95;;;0.30;99.90;;;;;;4997332;28;20204;-84
2022/01/12 01:41:45;;;;;;;9.80;8.10;;;0.30;99.90;;;;;;5013887;28;20253;-84
2022/01/12 01:55:27;;;;;;;12.57;8.13;;;0.20;99.90;;;;;;4998844;28;20199;-84
2022/01/12 01:57:54;;;;;;;11.00;7.70;;;0.10;99.90;;;;;;5016570;28;20238;-84
2022/01/12 02:00:26;;;;;;;13.38;8.60;;;0.00;99.90;;;;;;5014724;28;20191;-84
2022/01/12 02:02:57;;;;;;;10.63;7.35;;;0.00;99.90;;;;;;5026689;28;20285;-83
2022/01/12 02:05:24;;;;;;;8.38;7.13;;;0.00;99.90;;;;;;5008352;28;20268;-84
2022/01/12 02:07:51;;;;;;;10.15;7.70;;;0.00;99.90;;;;;;5007028;28;20238;-84
2022/01/12 02:10:18;;;;;;;11.40;8.98;;;0.00;99.90;;;;;;5007898;28;20220;-84
2022/01/12 02:12:44;;;;;;;11.65;8.40;;;0.00;99.90;;;;;;5007863;28;20215;-84
2022/01/12 02:15:17;;;;;;;11.27;8.48;;;-0.10;99.90;;;;;;5019609;28;20237;-84
2022/01/12 02:17:59;;;;;;;9.30;7.53;;;-0.10;99.90;;;;;;5018507;28;20200;-84
2022/01/12 02:35:12;;;;;;;12.45;9.45;;;-0.10;99.90;;;;;;5023988;28;20263;-83
2022/01/12 02:37:15;;;;;;;11.73;10.13;;;0.00;99.90;;;;;;5014984;28;20673;-84
2022/01/12 02:39:55;;;;;;;11.18;8.70;;;-0.10;99.90;;;;;;5010935;28;20219;-84
2022/01/12 02:42:23;;;;;;;10.40;9.30;;;-0.10;99.90;;;;;;5015271;28;20278;-83
2022/01/12 02:50:44;;;;;;;11.77;9.43;;;-0.10;99.90;;;;;;5010057;28;20223;-84
2022/01/12 02:55:56;;;;;;;13.00;8.77;;;-0.20;99.90;;;;;;5022807;28;20207;-82
2022/01/12 02:58:23;;;;;;;9.13;7.93;;;-0.30;99.90;;;;;;5022263;28;20199;-84
2022/01/12 03:01:16;;;;;;;7.95;7.05;;;-0.30;99.90;;;;;;5023217;28;20195;-84
2022/01/12 03:03:45;;;;;;;11.73;8.65;;;-0.40;99.90;;;;;;5003460;28;20315;-86
2022/01/12 03:06:17;;;;;;;13.85;9.25;;;-0.40;99.90;;;;;;5007706;28;20207;-86
2022/01/12 03:08:44;;;;;;;13.27;9.30;;;-0.40;99.90;;;;;;5013043;28;20196;-83
2022/01/12 03:11:14;;;;;;;12.93;9.93;;;-0.40;99.90;;;;;;4999440;28;20227;-83
2022/01/12 03:13:41;;;;;;;16.58;11.40;;;-0.30;99.90;;;;;;4999063;28;20716;-84
2022/01/12 03:16:13;;;;;;;13.02;10.05;;;-0.30;99.90;;;;;;5005986;28;20627;-83
2022/01/12 03:18:40;;;;;;;15.60;11.07;;;-0.30;99.90;;;;;;5008279;28;20650;-84
2022/01/12 03:21:07;;;;;;;14.50;10.70;;;-0.30;99.90;;;;;;5011592;28;20728;-84
2022/01/12 03:23:35;;;;;;;11.95;10.65;;;-0.30;99.90;;;;;;5010211;28;20219;-84
2022/01/12 03:26:03;;;;;;;11.23;9.95;;;-0.30;99.90;;;;;;5009541;28;20577;-85
2022/01/12 03:28:31;;;;;;;19.00;11.40;;;-0.40;99.90;;;;;;5016189;28;20203;-84
2022/01/12 03:31:06;;;;;;;12.93;10.43;;;-0.40;99.90;;;;;;5002670;28;20219;-84
2022/01/12 03:33:49;;;;;;;12.73;10.95;;;-0.40;99.90;;;;;;5003604;28;20255;-84
2022/01/12 03:36:28;;;;;;;13.88;10.02;;;-0.50;99.90;;;;;;5005023;28;20202;-85
2022/01/12 03:38:57;;;;;;;16.75;11.27;;;-0.50;99.90;;;;;;5018704;28;20570;-84
2022/01/12 03:41:26;;;;;;;16.20;11.88;;;-0.50;99.90;;;;;;5004458;28;20192;-85
2022/01/12 03:43:55;;;;;;;14.73;11.65;;;-0.50;99.90;;;;;;5014147;28;20297;-85
2022/01/12 03:46:24;;;;;;;13.68;11.55;;;-0.50;99.90;;;;;;5019454;28;20206;-85
2022/01/12 03:48:51;;;;;;;16.77;12.55;;;-0.40;99.90;;;;;;5013849;28;20211;-85
2022/01/12 03:51:18;;;;;;;16.65;12.27;;;-0.40;99.90;;;;;;5028336;28;20231;-84
2022/01/12 03:53:45;;;;;;;15.50;11.15;;;-0.50;99.90;;;;;;5023582;28;20219;-85
2022/01/12 03:56:11;;;;;;;17.38;12.75;;;-0.50;99.90;;;;;;5020005;28;20195;-84
2022/01/12 03:58:38;;;;;;;18.27;12.55;;;-0.50;99.90;;;;;;5019111;28;20621;-85
2022/01/12 04:01:06;;;;;;;14.00;10.55;;;-0.60;99.90;;;;;;5009841;28;20231;-85
2022/01/12 04:03:38;;;;;;;19.42;11.65;;;-0.60;99.90;;;;;;5016096;28;20219;-86
2022/01/12 04:08:49;;;;;;;13.32;10.63;;;-0.60;99.90;;;;;;5017513;28;20310;-86
2022/01/12 04:11:16;;;;;;;14.95;11.07;;;-0.60;99.90;;;;;;5010881;28;20219;-82
2022/01/12 04:13:44;;;;;;;14.20;10.30;;;-0.60;99.90;;;;;;5015924;28;20246;-85
2022/01/12 04:16:13;;;;;;;12.73;11.43;;;-0.70;99.90;;;;;;5010305;28;20491;-83
2022/01/12 04:18:40;;;;;;;15.43;11.52;;;-0.70;99.90;;;;;;5017366;28;20199;-85
2022/01/12 04:21:09;;;;;;;15.85;11.10;;;-0.60;99.90;;;;;;5005112;28;20255;-85
2022/01/12 04:23:37;;;;;;;23.13;15.95;;;-0.50;99.90;;;;;;5011875;28;20220;-84
2022/01/12 04:26:09;;;;;;;14.68;11.20;;;-0.60;99.90;;;;;;5015708;28;20199;-85
2022/01/12 04:28:37;;;;;;;15.48;11.63;;;-0.60;99.90;;;;;;5011052;28;20226;-85
2022/01/12 04:31:03;;;;;;;13.23;11.60;;;-0.60;99.90;;;;;;5004003;28;20220;-85
2022/01/12 04:33:32;;;;;;;16.63;12.82;;;-0.60;99.90;;;;;;5008969;28;20228;-85
2022/01/12 04:35:59;;;;;;;16.25;13.48;;;-0.60;99.90;;;;;;5017171;28;20188;-83
2022/01/12 04:38:29;;;;;;;14.20;12.20;;;-0.50;99.90;;;;;;5026118;28;20195;-84
2022/01/12 04:40:56;;;;;;;17.85;13.10;;;-0.50;99.90;;;;;;5014739;28;20633;-85
2022/01/12 04:43:25;;;;;;;17.17;12.48;;;-0.50;99.90;;;;;;5010405;28;20223;-85
2022/01/12 04:46:22;;;;;;;14.15;11.35;;;-0.60;99.90;;;;;;5007206;28;20292;-84
2022/01/12 04:48:54;;;;;;;20.17;15.27;;;-0.60;99.90;;;;;;5000743;28;20216;-84
2022/01/12 04:51:22;;;;;;;18.88;13.95;;;-0.60;99.90;;;;;;5018212;28;20219;-83
2022/01/12 04:53:49;;;;;;;19.75;14.50;;;-0.70;99.90;;;;;;5015648;28;20599;-84
2022/01/12 04:56:15;;;;;;;17.92;14.75;;;-0.70;99.90;;;;;;5003965;28;20282;-85
2022/01/12 04:58:42;;;;;;;18.45;14.32;;;-0.60;99.90;;;;;;5002847;28;20278;-85
2022/01/12 05:01:11;;;;;;;19.85;14.45;;;-0.60;99.90;;;;;;4995519;28;20196;-85
2022/01/12 05:06:44;;;;;;;15.77;13.18;;;-0.70;99.90;;;;;;5002897;28;20199;-85
2022/01/12 05:09:28;;;;;;;18.48;13.40;;;-0.70;99.90;;;;;;5014032;28;20531;-85
2022/01/12 05:14:44;;;;;;;15.13;12.43;;;-0.80;99.90;;;;;;5009527;28;20289;-84
2022/01/12 05:17:11;;;;;;;19.77;13.93;;;-0.90;99.90;;;;;;5016530;28;20223;-84
2022/01/12 05:19:38;;;;;;;18.13;13.43;;;-0.90;99.90;;;;;;4999688;28;20204;-85
2022/01/12 05:22:06;;;;;;;19.98;13.70;;;-1.00;99.90;;;;;;5016072;28;20192;-85
2022/01/12 05:24:33;;;;;;;20.92;13.93;;;-1.00;99.90;;;;;;4997432;28;20227;-85
2022/01/12 05:26:59;;;;;;;18.85;14.30;;;-1.00;99.90;;;;;;5019174;28;20192;-84
2022/01/12 05:29:26;;;;;;;15.88;13.27;;;-1.00;99.90;;;;;;5006298;28;20271;-85
2022/01/12 05:31:53;;;;;;;17.42;13.88;;;-1.00;99.90;;;;;;5014392;28;20219;-85
2022/01/12 05:34:20;;;;;;;19.33;14.75;;;-1.10;99.90;;;;;;5060297;23;20211;-92
2022/01/12 05:36:47;;;;;;;19.27;15.43;;;-1.10;99.90;;;;;;5017659;28;20238;-89
2022/01/12 05:39:16;;;;;;;20.75;15.40;;;-1.00;99.90;;;;;;5011579;28;20569;-89
2022/01/12 05:41:42;;;;;;;18.55;14.85;;;-1.10;99.90;;;;;;5005892;28;20203;-90
2022/01/12 05:44:13;;;;;;;20.05;14.52;;;-1.00;99.90;;;;;;5021476;28;20238;-91
2022/01/12 05:46:42;;;;;;;21.05;15.15;;;-1.10;99.90;;;;;;5032565;28;20620;-91
2022/01/12 05:51:54;;;;;;;18.05;14.32;;;-1.00;99.90;;;;;;5013151;28;20215;-90
2022/01/12 05:54:23;;;;;;;18.75;13.93;;;-1.10;99.90;;;;;;5022779;28;20210;-90
2022/01/12 05:56:49;;;;;;;18.88;13.30;;;-1.10;99.90;;;;;;5014195;28;20215;-91
2022/01/12 05:59:17;;;;;;;20.05;15.15;;;-1.10;99.90;;;;;;5011195;28;20210;-91
2022/01/12 06:01:44;;;;;;;17.83;14.73;;;-1.00;99.90;;;;;;5015292;28;20203;-90
2022/01/12 06:04:11;;;;;;;20.58;15.60;;;-1.00;99.90;;;;;;5012394;28;20226;-90
2022/01/12 06:06:38;;;;;;;18.25;14.63;;;-1.00;99.90;;;;;;5019670;28;20646;-90
2022/01/12 06:09:05;;;;;;;19.73;16.30;;;-1.00;99.90;;;;;;5015301;28;20196;-90
2022/01/12 06:11:33;;;;;;;18.73;14.52;;;-1.00;99.90;;;;;;5020952;28;20212;-93
2022/01/12 06:14:02;;;;;;;20.45;14.98;;;-1.00;99.90;;;;;;5025919;28;20228;-91
2022/01/12 06:16:29;;;;;;;19.92;15.25;;;-1.10;99.90;;;;;;5039132;28;20200;-93
2022/01/12 06:18:58;;;;;;;17.05;14.60;;;-1.00;99.90;;;;;;5027182;28;20209;-91
2022/01/12 06:21:25;;;;;;;17.75;14.75;;;-1.00;99.90;;;;;;5017123;28;20263;-91
2022/01/12 06:23:52;;;;;;;18.33;14.00;;;-1.10;99.90;;;;;;5007674;28;20224;-90
2022/01/12 06:26:23;;;;;;;20.67;15.18;;;-1.00;99.90;;;;;;5004994;28;20231;-90
2022/01/12 06:29:22;;;;;;;19.60;15.32;;;-1.10;99.90;;;;;;5014955;28;20219;-89
2022/01/12 06:31:55;;;;;;;20.05;14.05;;;-1.10;99.90;;;;;;5037299;28;20314;-90
2022/01/12 06:34:23;;;;;;;21.33;16.50;;;-1.10;99.90;;;;;;5030971;28;20234;-91
2022/01/12 06:36:54;;;;;;;21.33;15.60;;;-1.10;99.90;;;;;;5011118;28;20270;-91
2022/01/12 06:39:23;;;;;;;21.05;15.07;;;-1.10;99.90;;;;;;5026212;28;20267;-90
2022/01/12 06:41:54;;;;;;;22.60;18.92;;;-1.10;99.90;;;;;;5025643;28;20203;-90
2022/01/12 06:44:26;;;;;;;18.70;14.95;;;-1.10;99.90;;;;;;5026423;28;20230;-89
2022/01/12 06:47:02;;;;;;;19.52;15.85;;;-1.10;99.90;;;;;;5033485;28;20202;-89
2022/01/12 06:52:20;;;;;;;23.05;15.65;;;-1.10;99.90;;;;;;5004652;28;20235;-90
2022/01/12 06:54:48;;;;;;;18.08;14.35;;;-1.10;99.90;;;;;;5012300;28;20218;-90
2022/01/12 06:57:18;;;;;;;21.50;15.52;;;-1.10;99.90;;;;;;5015556;28;20242;-90
2022/01/12 06:59:48;;;;;;;21.85;16.95;;;-1.10;99.90;;;;;;5013466;28;20268;-90
2022/01/12 07:02:16;;;;;;;26.48;17.05;;;-1.10;99.90;;;;;;5029940;28;20186;-91
2022/01/12 07:04:43;;;;;;;22.15;15.70;;;-1.10;99.90;;;;;;5019375;28;20227;-88
2022/01/12 07:07:12;;;;;;;19.00;14.73;;;-1.10;99.90;;;;;;5016325;28;20200;-90
2022/01/12 07:09:41;;;;;;;20.67;15.68;;;-1.10;99.90;;;;;;5023267;28;20222;-91
2022/01/12 07:12:10;;;;;;;27.98;16.65;;;-1.10;99.90;;;;;;5025587;28;20278;-90
2022/01/12 07:14:37;;;;;;;17.65;15.52;;;-1.00;99.90;;;;;;5020068;28;20235;-90
2022/01/12 07:17:08;;;;;;;24.67;17.80;;;-1.00;99.90;;;;;;5033181;28;20195;-93
2022/01/12 07:19:35;;;;;;;19.20;14.98;;;-1.00;99.90;;;;;;5016823;28;20223;-91
2022/01/12 07:22:03;;;;;;;24.67;16.60;;;-1.10;99.90;;;;;;5015545;28;20191;-90
2022/01/12 07:24:30;;;;;;;25.10;17.88;;;-1.00;99.90;;;;;;5004668;28;20228;-86
2022/01/12 07:26:57;;;;;;;26.60;17.45;;;-1.00;99.90;;;;;;5019058;28;20206;-88
2022/01/12 07:29:23;;;;;;;22.92;16.05;;;-1.00;99.90;;;;;;5032686;28;20282;-87
2022/01/12 07:31:50;;;;;;;23.40;17.55;;;-1.00;99.90;;;;;;5016574;28;20223;-87
2022/01/12 07:34:18;;;;;;;20.30;16.08;;;-1.00;99.90;;;;;;5018743;28;20215;-88
2022/01/12 07:36:45;;;;;;;21.85;16.40;;;-1.00;99.90;;;;;;5014878;28;20621;-87
2022/01/12 07:39:12;;;;;;;28.77;18.10;;;-0.90;99.90;;;;;;5007714;28;20203;-87
2022/01/12 07:41:39;;;;;;;22.60;17.95;;;-0.90;99.90;;;;;;5014335;28;20200;-87
2022/01/12 07:44:07;;;;;;;23.75;18.48;;;-0.80;99.90;;;;;;5012355;28;20223;-88
2022/01/12 07:46:34;;;;;;;29.33;18.08;;;-0.70;99.90;;;;;;5011115;28;20200;-87
2022/01/12 07:49:00;;;;;;;26.67;18.55;;;-0.60;99.90;;;;;;5007128;28;20196;-88
2022/01/12 07:51:28;;;;;;;27.80;20.15;;;-0.70;99.90;;;;;;5012809;28;20220;-89
2022/01/12 07:53:55;;;;;;;26.05;20.25;;;-0.60;99.90;;;;;;5017474;28;20575;-87
2022/01/12 07:56:22;;;;;;;28.80;21.38;;;-0.60;99.90;;;;;;5006890;28;20192;-86
2022/01/12 07:58:49;;;;;;;27.48;20.95;;;-0.40;99.90;;;;;;5023237;28;20199;-87
2022/01/12 08:01:16;;;;;;;30.00;20.95;;;-0.40;99.90;;;;;;5010266;28;20254;-88
2022/01/12 08:03:43;;;;;;;27.85;19.95;;;-0.30;99.90;;;;;;5012699;28;20319;-89
2022/01/12 08:06:10;;;;;;;27.63;20.50;;;-0.10;99.90;;;;;;5006552;28;20204;-88
2022/01/12 08:08:38;;;;;;;29.58;22.25;;;0.00;99.90;;;;;;5015109;28;20200;-87
2022/01/12 08:11:05;;;;;;;29.00;21.30;;;0.10;99.90;;;;;;5010525;28;20623;-87
2022/01/12 08:13:31;;;;;;;24.05;18.30;;;0.20;99.90;;;;;;5011915;28;20223;-86
2022/01/12 08:15:58;;;;;;;24.95;20.45;;;0.20;99.90;;;;;;5009802;28;20614;-86
2022/01/12 08:18:25;;;;;;;26.17;19.90;;;0.40;99.90;;;;;;5010077;28;20573;-87
2022/01/12 08:20:52;;;;;;;23.70;19.40;;;0.40;99.90;;;;;;5006287;28;20282;-86
2022/01/12 08:23:19;;;;;;;27.33;19.88;;;0.50;99.90;;;;;;5009364;28;20224;-86
2022/01/12 08:25:47;;;;;;;23.88;18.35;;;0.60;99.90;;;;;;5025533;28;20223;-86
2022/01/12 08:28:14;;;;;;;23.63;18.55;;;0.70;99.90;;;;;;5019987;28;20275;-86
2022/01/12 08:30:42;;;;;;;24.65;18.42;;;0.90;99.90;;;;;;5025372;28;20225;-84
2022/01/12 08:33:09;;;;;;;23.58;18.30;;;1.10;99.90;;;;;;5018306;28;20752;-85
2022/01/12 08:35:35;;;;;;;25.95;19.23;;;1.40;99.90;;;;;;5014526;28;20264;-85
2022/01/12 08:38:02;;;;;;;24.58;19.25;;;1.60;99.90;;;;;;5010043;28;20203;-86
2022/01/12 08:40:30;;;;;;;26.33;18.70;;;1.70;99.90;;;;;;5009674;28;20200;-88
2022/01/12 08:42:58;;;;;;;22.20;19.00;;;1.80;99.90;;;;;;5021297;28;20247;-85
2022/01/12 08:45:25;;;;;;;27.85;19.17;;;1.80;99.90;;;;;;5014499;28;20203;-86
2022/01/12 08:47:52;;;;;;;25.65;19.13;;;1.70;99.90;;;;;;5005193;28;20204;-85
2022/01/12 08:50:18;;;;;;;22.80;16.50;;;1.70;99.90;;;;;;5019479;28;20193;-85
2022/01/12 08:52:47;;;;;;;23.50;19.98;;;1.60;99.90;;;;;;5018101;28;20217;-85
2022/01/12 08:55:15;;;;;;;25.83;20.40;;;1.30;99.90;;;;;;5018495;28;20231;-85
2022/01/12 08:57:42;;;;;;;20.60;18.38;;;1.20;99.90;;;;;;5003732;28;20198;-85
2022/01/12 09:00:11;;;;;;;25.58;19.80;;;1.30;99.90;;;;;;4996070;28;20671;-86
2022/01/12 09:02:39;;;;;;;23.10;17.42;;;1.50;99.90;;;;;;4997518;28;20568;-85
2022/01/12 09:05:08;;;;;;;22.00;18.65;;;1.90;99.90;;;;;;4997269;28;20321;-86
2022/01/12 09:07:35;;;;;;;23.88;18.38;;;2.10;99.90;;;;;;4995846;28;20701;-85
2022/01/12 09:10:03;;;;;;;25.15;19.38;;;2.20;99.90;;;;;;4996397;28;20659;-86
2022/01/12 09:12:30;;;;;;;26.95;20.17;;;2.40;99.90;;;;;;4995658;28;20661;-85
2022/01/12 09:14:57;;;;;;;24.45;20.75;;;2.40;99.90;;;;;;4995407;28;20234;-85
2022/01/12 09:17:25;;;;;;;22.40;17.83;;;2.00;99.90;;;;;;4995427;28;20205;-85
2022/01/12 09:19:53;;;;;;;30.33;18.85;;;2.20;99.90;;;;;;4995350;28;20214;-85
2022/01/12 09:22:20;;;;;;;24.00;18.20;;;2.40;99.90;;;;;;4996025;28;20619;-85
2022/01/12 09:24:47;;;;;;;20.30;17.50;;;2.70;99.90;;;;;;4996836;28;20481;-85
2022/01/12 09:27:14;;;;;;;21.35;18.17;;;3.10;99.90;;;;;;5016864;28;20434;-85
2022/01/12 09:29:42;;;;;;;18.85;16.85;;;3.30;99.90;;;;;;5000098;28;20210;-85
2022/01/12 09:32:09;;;;;;;22.67;17.80;;;3.50;99.90;;;;;;5001237;28;20227;-85
2022/01/12 09:34:37;;;;;;;20.03;15.70;;;3.30;99.90;;;;;;4999573;28;20484;-85
2022/01/12 09:37:04;;;;;;;19.70;16.73;;;3.40;99.90;;;;;;4999382;28;20824;-86
2022/01/12 09:39:32;;;;;;;21.07;17.73;;;3.20;99.90;;;;;;4996804;28;20216;-86
2022/01/12 09:41:59;;;;;;;19.43;17.27;;;3.20;99.90;;;;;;4996484;28;20450;-85
2022/01/12 09:44:30;;;;;;;23.50;18.70;;;3.20;99.90;;;;;;5005102;28;20474;-86
2022/01/12 09:46:57;;;;;;;22.30;18.30;;;3.20;99.90;;;;;;4996662;28;20452;-86
2022/01/12 09:49:24;;;;;;;23.90;17.90;;;3.50;99.90;;;;;;4997877;28;20834;-86
2022/01/12 09:51:55;;;;;;;19.40;17.07;;;3.60;99.90;;;;;;4995252;28;20453;-86
2022/01/12 09:54:22;;;;;;;24.23;17.83;;;3.70;99.90;;;;;;4996206;28;20482;-83
2022/01/12 09:56:49;;;;;;;22.47;18.83;;;3.60;99.90;;;;;;5012734;28;20456;-80
2022/01/12 09:59:15;;;;;;;25.27;17.38;;;3.60;99.90;;;;;;5019599;28;20441;-79
2022/01/12 10:01:44;;;;;;;18.48;16.50;;;3.30;99.90;;;;;;5006818;28;20213;-80
2022/01/12 10:04:15;;;;;;;20.40;17.73;;;3.30;99.90;;;;;;5022312;28;20250;-86
2022/01/12 10:06:46;;;;;;;19.73;16.57;;;3.20;99.90;;;;;;5030614;28;20449;-86
2022/01/12 10:09:15;;;;;;;19.23;16.27;;;3.50;99.90;;;;;;5033291;28;20479;-88
2022/01/12 10:11:51;;;;;;;19.97;16.43;;;3.90;99.80;;;;;;5022230;28;20451;-88
2022/01/12 10:14:17;;;;;;;19.37;15.63;;;4.30;99.80;;;;;;5017724;28;20477;-87
2022/01/12 10:16:52;;;;;;;17.83;15.90;;;6.30;99.20;;;;;;5006121;28;20455;-88
2022/01/12 10:19:26;;;;;;;16.10;14.40;;;8.10;94.30;;;;;;5011243;28;20454;-89
2022/01/12 10:21:53;;;;;;;16.93;15.03;;;8.20;90.10;;;;;;5000407;28;20497;-88
2022/01/12 10:24:22;;;;;;;16.83;15.13;;;8.50;89.30;;;;;;5008656;28;20470;-88
2022/01/12 10:26:49;;;;;;;19.10;15.27;;;9.10;88.30;;;;;;5012401;28;20587;-89
2022/01/12 10:29:18;;;;;;;16.33;14.40;;;9.60;84.60;;;;;;5031540;28;20428;-87
2022/01/12 10:31:49;;;;;;;17.50;13.80;;;9.90;82.90;;;;;;5037015;28;20454;-87
2022/01/12 10:34:16;;;;;;;14.67;13.23;;;10.40;78.60;;;;;;5024848;28;20478;-88
2022/01/12 10:36:47;;;;;;;15.07;13.53;;;11.00;76.90;;;;;;5023775;28;20454;-87
2022/01/12 10:39:16;;;;;;;15.73;14.13;;;11.90;71.10;;;;;;5019479;28;20501;-88
2022/01/12 10:41:56;;;;;;;16.13;14.53;;;11.10;70.40;;;;;;5016557;28;20447;-87
2022/01/12 10:44:25;;;;;;;16.97;15.20;;;10.80;73.40;;;;;;5014509;28;20463;-87
2022/01/12 10:47:10;;;;;;;16.30;14.63;;;10.60;71.10;;;;;;5005015;28;20637;-87
2022/01/12 10:49:38;;;;;;;17.80;13.63;;;10.60;72.40;;;;;;5003384;28;20447;-88
2022/01/12 10:52:09;;;;;;;16.50;14.80;;;12.00;71.50;;;;;;5001184;28;20455;-88
2022/01/12 10:54:48;;;;;;;15.17;13.63;;;13.30;66.20;;;;;;5000998;28;20536;-88
2022/01/12 10:57:25;;;;;;;14.03;12.73;;;14.80;60.80;;;;;;4999346;28;20453;-87
2022/01/12 11:00:06;;;;;;;14.50;13.13;;;13.30;58.70;;;;;;5002326;28;20431;-88
2022/01/12 11:02:35;;;;;;;14.73;13.33;;;13.10;60.30;;;;;;5010526;28;20465;-88
2022/01/12 11:05:03;;;;;;;12.70;11.40;;;15.30;58.20;;;;;;5005262;28;20463;-88
2022/01/12 11:07:31;;;;;;;14.83;12.70;;;14.80;56.20;;;;;;5003318;28;20452;-88
2022/01/12 11:09:59;;;;;;;15.07;13.57;;;15.90;55.40;;;;;;5001279;28;20458;-88
2022/01/12 11:12:28;;;;;;;12.53;11.53;;;15.30;53.50;;;;;;5006294;28;21015;-88
2022/01/12 11:14:56;;;;;;;12.83;11.73;;;16.10;53.00;;;;;;5002052;28;21008;-86
2022/01/12 11:17:23;;;;;;;13.33;12.13;;;16.80;52.40;;;;;;5001033;28;20462;-87
2022/01/12 11:19:58;;;;;;;12.70;11.60;;;17.50;51.90;;;;;;5000156;28;20465;-88
2022/01/12 11:22:35;;;;;;;12.17;11.07;;;18.30;48.50;;;;;;5001444;28;20458;-87
2022/01/12 11:25:02;;;;;;;12.47;11.37;;;19.50;47.30;;;;;;5018661;28;20455;-87
2022/01/12 11:27:30;;;;;;;13.53;12.43;;;20.30;45.90;;;;;;5006252;28;20488;-88
2022/01/12 11:29:59;;;;;;;13.63;12.43;;;20.90;44.50;;;;;;5003462;28;20441;-88
2022/01/12 11:32:25;;;;;;;13.87;12.77;;;20.90;43.10;;;;;;5000384;28;20576;-88
2022/01/12 11:35:02;;;;;;;14.13;12.90;;;21.00;43.00;;;;;;4999429;28;20485;-88
2022/01/12 11:37:28;;;;;;;15.37;13.60;;;20.00;43.00;;;;;;4999213;28;20446;-87
2022/01/12 11:40:06;;;;;;;14.97;13.60;;;20.00;43.30;;;;;;5002343;28;20459;-87
2022/01/12 11:42:37;;;;;;;16.03;14.63;;;20.90;44.30;;;;;;5003477;28;20436;-88
2022/01/12 11:45:05;;;;;;;15.73;14.23;;;20.50;43.20;;;;;;5002795;28;20463;-88
2022/01/12 11:47:32;;;;;;;14.50;13.23;;;20.40;42.50;;;;;;5003234;28;20435;-87
2022/01/12 11:49:59;;;;;;;13.90;12.80;;;19.90;42.60;;;;;;5001475;28;20499;-88
2022/01/12 11:52:27;;;;;;;12.63;11.60;;;20.30;42.90;;;;;;4998871;28;20447;-88
2022/01/12 11:55:09;;;;;;;14.80;13.37;;;21.30;42.50;;;;;;4999668;28;20518;-88
2022/01/12 11:57:41;;;;;;;13.10;12.00;;;21.20;42.20;;;;;;5000556;28;20602;-88
2022/01/12 12:00:12;;;;;;;14.40;13.03;;;20.30;40.50;;;;;;4999230;28;20454;-88
2022/01/12 12:02:41;;;;;;;15.07;13.80;;;18.60;42.80;;;;;;5005071;28;20443;-88
2022/01/12 12:05:10;;;;;;;14.00;12.73;;;17.40;44.50;;;;;;4999406;28;20468;-88
2022/01/12 12:07:48;;;;;;;13.70;12.50;;;16.60;45.90;;;;;;5001269;28;20450;-88
2022/01/12 12:10:17;;;;;;;13.43;12.30;;;16.60;46.30;;;;;;5017483;28;20451;-86
2022/01/12 12:12:46;;;;;;;12.47;11.27;;;16.50;45.40;;;;;;5011331;28;20466;-87
2022/01/12 12:15:14;;;;;;;13.47;12.17;;;16.70;46.60;;;;;;5012804;28;20457;-88
2022/01/12 12:17:43;;;;;;;14.70;13.30;;;16.80;46.90;;;;;;5008312;28;20447;-87
2022/01/12 12:20:12;;;;;;;13.27;12.17;;;17.90;45.60;;;;;;5006499;28;20451;-88
2022/01/12 12:22:41;;;;;;;13.87;12.67;;;16.60;45.50;;;;;;5009795;28;20454;-88
2022/01/12 12:25:11;;;;;;;13.63;12.37;;;17.20;45.80;;;;;;5002787;28;20498;-88
2022/01/12 12:27:39;;;;;;;13.27;12.07;;;17.20;45.70;;;;;;5000861;28;20447;-87
2022/01/12 12:30:11;;;;;;;13.10;11.90;;;16.50;45.70;;;;;;5000380;28;20455;-88
2022/01/12 12:32:39;;;;;;;12.40;11.17;;;15.90;47.30;;;;;;5009813;28;20421;-87
2022/01/12 12:35:08;;;;;;;14.43;12.93;;;16.60;47.30;;;;;;5018289;28;20541;-87
2022/01/12 12:37:37;;;;;;;13.13;12.03;;;17.30;46.50;;;;;;5004102;28;20454;-88
2022/01/12 12:40:17;;;;;;;12.87;11.77;;;17.10;45.60;;;;;;5017506;28;20431;-88
2022/01/12 12:42:45;;;;;;;14.67;13.17;;;16.60;46.30;;;;;;5002123;28;20464;-88
2022/01/12 12:45:13;;;;;;;11.90;10.70;;;15.90;46.90;;;;;;5001117;28;20455;-88
2022/01/12 12:47:40;;;;;;;13.00;11.83;;;15.10;47.60;;;;;;5003822;28;20456;-87
2022/01/12 12:50:12;;;;;;;12.30;11.20;;;14.80;48.90;;;;;;5017312;28;20462;-88
2022/01/12 12:52:40;;;;;;;12.60;11.50;;;14.80;49.30;;;;;;5010731;28;20455;-88
2022/01/12 12:55:12;;;;;;;12.13;11.03;;;14.60;49.50;;;;;;5017567;28;20473;-86
2022/01/12 12:57:46;;;;;;;11.53;10.53;;;13.60;49.50;;;;;;5004522;28;20443;-88
2022/01/12 13:00:17;;;;;;;12.40;11.10;;;13.20;51.00;;;;;;4999276;28;20439;-89
2022/01/12 13:02:45;;;;;;;12.53;11.23;;;13.10;52.30;;;;;;5000458;28;20454;-89
2022/01/12 13:05:14;;;;;;;11.90;10.80;;;12.80;52.10;;;;;;5002090;28;20953;-87
2022/01/12 13:07:43;;;;;;;12.90;11.40;;;12.60;52.40;;;;;;5015918;28;20467;-87
2022/01/12 13:10:14;;;;;;;12.23;11.07;;;12.70;52.80;;;;;;5007490;28;20448;-88
2022/01/12 13:12:42;;;;;;;14.13;12.83;;;12.90;52.40;;;;;;5001365;28;20455;-87
2022/01/12 13:15:11;;;;;;;13.47;12.27;;;12.80;52.20;;;;;;5002540;28;20478;-88
2022/01/12 13:17:40;;;;;;;16.03;13.30;;;12.00;52.90;;;;;;4997919;28;20465;-88
2022/01/12 13:23:03;;;;;;;14.10;12.80;;;10.60;55.80;;;;;;5000460;28;20869;-87
2022/01/12 13:25:31;;;;;;;13.43;12.17;;;10.10;57.60;;;;;;5004480;28;20443;-87
2022/01/12 13:27:58;;;;;;;15.33;11.60;;;10.00;58.60;;;;;;5013548;28;20435;-87
2022/01/12 13:30:28;;;;;;;14.60;13.20;;;10.10;58.90;;;;;;5001354;28;20536;-87
2022/01/12 13:32:59;;;;;;;14.83;13.30;;;10.20;59.10;;;;;;4996844;28;20447;-87
2022/01/12 13:35:28;;;;;;;14.47;11.70;;;10.30;58.40;;;;;;4997350;28;20452;-87
2022/01/12 13:37:57;;;;;;;13.10;11.70;;;9.90;59.20;;;;;;4997569;28;20453;-87
2022/01/12 13:40:24;;;;;;;11.80;10.63;;;9.20;60.40;;;;;;4997968;28;20439;-88
2022/01/12 13:42:53;;;;;;;13.37;12.17;;;9.60;62.50;;;;;;4998167;28;20454;-87
2022/01/12 13:45:25;;;;;;;11.33;10.13;;;10.30;59.20;;;;;;5012335;28;20440;-87
2022/01/12 13:47:59;;;;;;;13.10;11.90;;;11.40;58.70;;;;;;5005659;28;20447;-87